Time;durP1;ratioP1;P1;durP2;ratioP2;P2;SDS_P1;SDS_P2;PMS_P1;PMS_P2;Temp;Humidity;BMP_temperature;BMP_pressure;BME280_temperature;BME280_humidity;BME280_pressure;Samples;Min_cycle;Max_cycle;Signal;HPM_P1;HPM_P2
2021/01/27 00:00:42;;;;;;;21.52;15.88;;;;;;;3.85;72.46;100019.84;1778828;79;21374;-50
2021/01/27 00:03:49;;;;;;;26.35;21.17;;;;;;;3.88;72.72;100009.59;1766525;80;21434;-49
2021/01/27 00:06:54;;;;;;;24.72;18.67;;;;;;;3.92;72.65;100000.66;1760997;81;21395;-50
2021/01/27 00:10:00;;;;;;;24.80;17.50;;;;;;;3.86;72.59;99998.04;1760701;80;21366;-50
2021/01/27 00:13:05;;;;;;;20.90;15.90;;;;;;;3.84;72.77;99997.31;1760824;81;21347;-51
2021/01/27 00:16:12;;;;;;;20.97;15.75;;;;;;;3.93;73.07;100011.86;1760756;80;21386;-50
2021/01/27 00:19:18;;;;;;;19.15;13.30;;;;;;;4.03;73.04;100016.27;1760591;80;21370;-50
2021/01/27 00:22:24;;;;;;;19.07;13.15;;;;;;;4.12;72.88;100018.09;1760688;81;21385;-51
2021/01/27 00:25:32;;;;;;;19.10;14.63;;;;;;;4.17;72.59;100008.22;1760771;80;21229;-50
2021/01/27 00:28:38;;;;;;;21.30;15.38;;;;;;;4.23;72.47;100011.69;1760801;81;21331;-50
2021/01/27 00:31:44;;;;;;;21.77;16.02;;;;;;;4.28;72.21;100009.41;1761006;81;21371;-50
2021/01/27 00:34:50;;;;;;;18.70;15.85;;;;;;;4.32;72.06;100014.39;1761055;80;21358;-50
2021/01/27 00:37:56;;;;;;;20.85;15.32;;;;;;;4.35;71.88;100011.88;1760719;81;21332;-50
2021/01/27 00:41:02;;;;;;;20.43;14.18;;;;;;;4.36;71.55;99998.70;1760728;80;21406;-50
2021/01/27 00:44:08;;;;;;;18.57;13.78;;;;;;;4.34;71.36;99997.46;1761058;80;21714;-49
2021/01/27 00:47:13;;;;;;;19.35;13.72;;;;;;;4.31;71.24;99999.11;1760893;81;21205;-50
2021/01/27 00:50:20;;;;;;;17.37;13.40;;;;;;;4.31;71.37;99999.11;1760603;80;21391;-50
2021/01/27 00:53:27;;;;;;;19.95;15.43;;;;;;;4.35;71.40;99999.19;1760953;81;21358;-51
2021/01/27 00:56:33;;;;;;;22.58;14.03;;;;;;;4.36;71.18;99996.83;1760458;81;21833;-50
2021/01/27 00:59:39;;;;;;;20.35;15.13;;;;;;;4.37;71.02;99994.98;1761089;80;21414;-50
2021/01/27 01:02:44;;;;;;;22.02;15.70;;;;;;;4.35;70.93;99999.19;1760743;81;21209;-51
2021/01/27 01:05:52;;;;;;;20.82;15.80;;;;;;;4.35;70.99;100001.90;1760895;79;21915;-50
2021/01/27 01:08:57;;;;;;;22.22;15.28;;;;;;;4.36;70.95;99995.47;1760786;80;21192;-50
2021/01/27 01:12:06;;;;;;;19.52;12.78;;;;;;;4.34;70.69;99992.05;1760919;81;21335;-50
2021/01/27 01:15:12;;;;;;;15.32;10.95;;;;;;;4.33;70.41;99985.41;1760844;80;21225;-50
2021/01/27 01:18:19;;;;;;;15.88;11.00;;;;;;;4.33;70.18;99988.99;1760746;81;21390;-50
2021/01/27 01:21:24;;;;;;;16.67;11.65;;;;;;;4.31;69.84;99995.05;1766099;80;21363;-50
2021/01/27 01:24:31;;;;;;;13.68;10.70;;;;;;;4.34;70.06;99992.05;1791814;78;22050;-50
2021/01/27 01:27:36;;;;;;;14.43;10.58;;;;;;;4.37;69.81;99978.72;1791253;80;21205;-50
2021/01/27 01:30:45;;;;;;;37.83;19.75;;;;;;;4.37;69.53;99983.66;1790939;78;21221;-50
2021/01/27 01:33:50;;;;;;;55.63;27.85;;;;;;;4.37;69.47;99982.78;1790708;80;21695;-49
2021/01/27 01:36:56;;;;;;;28.80;15.48;;;;;;;4.37;69.37;99959.75;1790733;80;21169;-49
2021/01/27 01:40:01;;;;;;;18.25;11.85;;;;;;;4.31;69.12;99961.19;1790731;78;21260;-49
2021/01/27 01:43:31;;;;;;;38.80;19.73;;;;;;;4.25;68.88;99967.19;1791255;80;21189;-50
2021/01/27 01:46:37;;;;;;;101.38;43.25;;;;;;;4.20;68.93;99972.70;1791549;80;21280;-50
2021/01/27 01:49:43;;;;;;;95.22;43.33;;;;;;;4.21;69.04;99950.89;1791662;78;21232;-49
2021/01/27 01:52:49;;;;;;;70.72;33.35;;;;;;;4.25;69.08;99939.27;1791638;80;21420;-51
2021/01/27 01:55:56;;;;;;;55.08;27.45;;;;;;;4.23;69.00;99950.22;1784951;80;21813;-51
2021/01/27 01:59:03;;;;;;;62.75;31.12;;;;;;;4.20;68.88;99954.58;1783217;78;21181;-50
2021/01/27 02:02:14;;;;;;;56.00;27.77;;;;;;;4.16;68.81;99959.95;1788288;80;21831;-50
2021/01/27 02:05:25;;;;;;;;;;;;;;;4.16;68.97;99940.99;1795988;78;21259;-50
2021/01/27 02:08:30;;;;;;;36.68;20.08;;;;;;;4.21;69.00;99927.87;1801968;79;20280;-50
2021/01/27 02:12:00;;;;;;;23.07;14.10;;;;;;;4.11;68.89;99928.38;1781987;80;21323;-50
2021/01/27 02:15:52;;;;;;;17.00;12.07;;;;;;;4.04;69.09;99927.24;1802102;79;21231;-50
2021/01/27 02:19:19;;;;;;;15.63;10.72;;;;;;;3.94;69.38;99941.32;1802198;79;21315;-50
2021/01/27 02:22:35;;;;;;;33.50;18.90;;;;;;;3.86;69.62;99944.38;1807720;79;21192;-50
2021/01/27 02:26:06;;;;;;;35.65;20.02;;;;;;;3.82;70.03;99944.33;1810278;79;21346;-50
2021/01/27 02:29:38;;;;;;;49.03;23.90;;;;;;;3.87;70.31;99952.88;1810107;79;21428;-49
2021/01/27 02:32:55;;;;;;;31.80;18.65;;;;;;;3.94;70.30;99945.38;1810346;79;21328;-49
2021/01/27 02:36:12;;;;;;;27.05;17.02;;;;;;;3.97;70.15;99942.38;1810201;79;21411;-51
2021/01/27 02:39:29;;;;;;;25.92;16.17;;;;;;;3.88;70.24;99940.55;1810631;79;21334;-52
2021/01/27 02:42:44;;;;;;;34.78;20.23;;;;;;;3.91;70.36;99920.45;1810978;79;21318;-52
2021/01/27 02:45:55;;;;;;;30.88;19.35;;;;;;;3.91;70.34;99914.54;1778508;80;21240;-51
2021/01/27 02:49:29;;;;;;;33.45;19.60;;;;;;;3.95;70.37;99911.88;1778414;80;21197;-51
2021/01/27 02:52:45;;;;;;;24.23;16.65;;;;;;;3.99;70.35;99910.61;1778419;80;21926;-52
2021/01/27 02:56:12;;;;;;;39.23;22.85;;;;;;;4.05;70.33;99908.66;1778314;80;21874;-49
2021/01/27 02:59:26;;;;;;;25.82;16.82;;;;;;;4.11;70.20;99901.30;1750545;82;21232;-50
2021/01/27 03:02:40;;;;;;;16.27;11.20;;;;;;;4.12;69.99;99918.41;1771482;81;21224;-51
2021/01/27 03:05:49;;;;;;;14.53;10.20;;;;;;;4.06;69.74;99927.96;1752127;79;21755;-49
2021/01/27 03:09:08;;;;;;;14.65;10.48;;;;;;;4.07;69.71;99923.41;1720867;83;21343;-51
2021/01/27 03:12:14;;;;;;;17.92;12.13;;;;;;;4.08;69.54;99904.80;1720803;83;21343;-51
2021/01/27 03:15:21;;;;;;;32.48;19.32;;;;;;;4.01;69.73;99896.40;1720562;83;21231;-50
2021/01/27 03:18:30;;;;;;;36.68;18.17;;;;;;;4.00;69.63;99893.34;1720759;83;21389;-51
2021/01/27 03:21:39;;;;;;;27.85;16.73;;;;;;;3.95;69.75;99901.54;1720775;83;21878;-51
2021/01/27 03:25:02;;;;;;;15.38;10.93;;;;;;;3.95;69.66;99901.54;1720718;83;21247;-51
2021/01/27 03:28:41;;;;;;;16.82;10.90;;;;;;;3.93;69.57;99895.44;1720730;83;21287;-51
2021/01/27 03:31:47;;;;;;;14.43;10.68;;;;;;;3.85;69.55;99889.41;1720733;83;21919;-50
2021/01/27 03:34:55;;;;;;;13.78;9.85;;;;;;;3.73;69.58;99903.22;1720691;83;21931;-50
2021/01/27 03:38:09;;;;;;;13.65;9.78;;;;;;;3.66;69.55;99891.28;1720641;83;21433;-51
2021/01/27 03:41:26;;;;;;;;;;;;;;;3.60;69.84;99887.28;1723332;83;21441;-50
2021/01/27 03:44:45;;;;;;;16.17;11.50;;;;;;;3.59;69.91;99880.66;1720613;83;20334;-50
2021/01/27 03:48:25;;;;;;;15.05;10.85;;;;;;;3.52;70.01;99881.73;1720580;83;21481;-51
2021/01/27 03:51:30;;;;;;;18.70;12.53;;;;;;;3.61;70.44;99878.67;1720708;83;21358;-50
2021/01/27 03:54:37;;;;;;;19.85;13.78;;;;;;;3.71;70.33;99879.53;1720551;83;21386;-50
2021/01/27 03:57:47;;;;;;;24.05;16.73;;;;;;;3.67;69.97;99866.78;1720709;83;21871;-50
2021/01/27 04:00:53;;;;;;;23.35;15.70;;;;;;;3.63;70.29;99874.81;1720691;83;21374;-51
2021/01/27 04:03:59;;;;;;;25.88;17.35;;;;;;;3.68;70.30;99867.12;1720608;83;21228;-52
2021/01/27 04:07:05;;;;;;;39.33;24.80;;;;;;;3.72;70.15;99877.16;1721567;82;21323;-52
2021/01/27 04:10:14;;;;;;;28.73;17.27;;;;;;;3.73;70.01;99875.66;1767701;80;21391;-51
2021/01/27 04:13:20;;;;;;;21.12;13.18;;;;;;;3.78;69.92;99876.58;1767497;81;21861;-51
2021/01/27 04:16:26;;;;;;;14.90;10.35;;;;;;;3.72;69.70;99879.37;1767692;81;21358;-52
2021/01/27 04:19:32;;;;;;;18.37;12.23;;;;;;;3.57;69.56;99874.05;1767750;80;21517;-52
2021/01/27 04:22:37;;;;;;;21.65;14.18;;;;;;;3.51;70.13;99871.05;1767156;81;21334;-53
2021/01/27 04:25:42;;;;;;;17.92;13.00;;;;;;;3.58;70.36;99870.85;1767259;81;21236;-52
2021/01/27 04:28:48;;;;;;;20.23;13.38;;;;;;;3.66;70.22;99878.61;1743497;82;21228;-51
2021/01/27 04:31:55;;;;;;;24.02;16.32;;;;;;;3.68;70.07;99871.18;1767723;80;21895;-54
2021/01/27 04:35:01;;;;;;;24.20;14.68;;;;;;;3.73;70.27;99864.84;1767318;81;21236;-52
2021/01/27 04:38:08;;;;;;;18.85;12.93;;;;;;;3.85;70.14;99865.53;1767588;81;21231;-52
2021/01/27 04:41:15;;;;;;;17.82;12.03;;;;;;;3.83;69.67;99864.33;1767671;81;21429;-52
2021/01/27 04:44:20;;;;;;;22.55;14.60;;;;;;;3.78;69.63;99865.26;1767606;81;21409;-53
2021/01/27 04:47:50;;;;;;;18.90;12.90;;;;;;;3.80;69.87;99860.56;1767706;81;21370;-53
2021/01/27 04:51:03;;;;;;;20.35;12.58;;;;;;;3.87;69.71;99869.79;1767692;80;21268;-53
2021/01/27 04:54:35;;;;;;;17.60;11.83;;;;;;;3.86;69.50;99866.74;1767577;81;21334;-52
2021/01/27 04:58:03;;;;;;;13.40;9.73;;;;;;;3.89;69.34;99872.34;1743915;82;21736;-52
2021/01/27 05:01:34;;;;;;;13.32;9.78;;;;;;;3.87;69.11;99877.91;1768497;79;21209;-52
2021/01/27 05:05:17;;;;;;;19.50;11.88;;;;;;;3.86;69.08;99886.17;1714402;83;21377;-53
2021/01/27 05:08:38;;;;;;;20.55;13.38;;;;;;;3.90;69.24;99894.38;1768537;80;21597;-53
2021/01/27 05:11:43;;;;;;;14.87;9.78;;;;;;;4.02;69.15;99908.09;1778370;80;21447;-53
2021/01/27 05:14:53;;;;;;;16.37;10.08;;;;;;;4.08;68.85;99913.78;1778215;80;21350;-53
2021/01/27 05:18:00;;;;;;;16.48;10.08;;;;;;;4.03;68.42;99921.48;1778288;80;21342;-53
2021/01/27 05:21:09;;;;;;;32.60;18.25;;;;;;;3.96;68.27;99926.28;1778233;80;21366;-53
2021/01/27 05:24:15;;;;;;;24.60;16.05;;;;;;;3.87;68.47;99927.16;1778210;80;21389;-53
2021/01/27 05:27:35;;;;;;;26.70;18.35;;;;;;;3.89;68.72;99924.65;1778325;80;21204;-53
2021/01/27 05:30:51;;;;;;;30.43;20.23;;;;;;;3.96;68.82;99920.87;1754411;82;21776;-53
2021/01/27 05:33:59;;;;;;;23.30;14.98;;;;;;;4.02;68.75;99918.44;1786369;79;21188;-54
2021/01/27 05:37:08;;;;;;;20.17;13.20;;;;;;;4.03;68.66;99911.14;1778128;80;21346;-53
2021/01/27 05:40:42;;;;;;;17.05;11.28;;;;;;;3.97;68.82;99916.66;1803831;79;21378;-53
2021/01/27 05:43:49;;;;;;;17.17;11.45;;;;;;;3.88;68.69;99910.77;1808652;79;21848;-54
2021/01/27 05:46:56;;;;;;;16.35;11.88;;;;;;;3.68;69.15;99901.47;1801233;79;21904;-53
2021/01/27 05:50:01;;;;;;;14.90;10.55;;;;;;;3.58;69.62;99892.01;1788364;79;21196;-53
2021/01/27 05:53:24;;;;;;;15.60;11.40;;;;;;;3.51;70.05;99884.09;1780271;79;21466;-53
2021/01/27 05:56:33;;;;;;;19.05;12.75;;;;;;;3.47;70.49;99870.52;1766294;79;21517;-54
2021/01/27 05:59:41;;;;;;;19.50;13.40;;;;;;;3.49;70.87;99860.38;1797280;79;21204;-53
2021/01/27 06:02:53;;;;;;;17.00;12.18;;;;;;;3.48;71.12;99856.47;1793812;79;21816;-54
2021/01/27 06:05:59;;;;;;;14.75;10.05;;;;;;;3.46;71.39;99849.84;1749318;80;21227;-53
2021/01/27 06:09:08;;;;;;;17.87;12.18;;;;;;;3.39;71.41;99847.87;1790106;80;21255;-53
2021/01/27 06:12:27;;;;;;;15.78;11.10;;;;;;;3.21;71.66;99839.62;1800169;79;21296;-54
2021/01/27 06:15:38;;;;;;;15.75;11.45;;;;;;;3.20;72.05;99850.09;1748974;82;21846;-53
2021/01/27 06:18:43;;;;;;;16.82;11.38;;;;;;;3.13;72.32;99838.12;1771258;80;21350;-52
2021/01/27 06:22:15;;;;;;;14.50;10.35;;;;;;;3.13;72.19;99838.61;1756893;80;21714;-53
2021/01/27 06:25:43;;;;;;;21.42;15.08;;;;;;;3.05;72.44;99839.33;1796113;79;21451;-52
2021/01/27 06:29:22;;;;;;;27.77;18.65;;;;;;;2.97;72.58;99827.02;1751727;82;21903;-52
2021/01/27 06:32:58;;;;;;;24.98;17.65;;;;;;;2.93;72.73;99822.38;1679376;85;21788;-53
2021/01/27 06:36:45;;;;;;;20.20;14.60;;;;;;;2.95;72.86;99817.70;1771802;81;21302;-53
2021/01/27 06:40:46;;;;;;;15.58;10.58;;;;;;;3.00;72.87;99813.21;1751206;82;21438;-53
2021/01/27 06:44:22;;;;;;;31.55;21.05;;;;;;;3.03;72.65;99800.76;1751904;82;21357;-53
2021/01/27 06:47:44;;;;;;;23.77;16.45;;;;;;;2.98;72.71;99790.38;1751929;82;21345;-53
2021/01/27 06:51:13;;;;;;;21.62;15.65;;;;;;;2.94;72.65;99789.45;1751917;82;21421;-53
2021/01/27 06:54:46;;;;;;;24.67;16.80;;;;;;;3.01;72.82;99789.27;1751538;82;21882;-52
2021/01/27 06:58:31;;;;;;;27.60;16.93;;;;;;;3.16;72.72;99776.12;1766844;80;21248;-53
2021/01/27 07:02:05;;;;;;;24.92;16.07;;;;;;;3.18;72.12;99766.90;1794406;79;21347;-52
2021/01/27 07:05:43;;;;;;;21.42;13.55;;;;;;;3.02;71.87;99760.73;1781784;80;21224;-53
2021/01/27 07:09:11;;;;;;;24.50;11.85;;;;;;;2.99;72.33;99745.29;1781402;80;21255;-52
2021/01/27 07:12:35;;;;;;;24.15;15.60;;;;;;;2.98;72.05;99744.42;1780117;80;21204;-52
2021/01/27 07:15:50;;;;;;;27.80;18.55;;;;;;;2.94;72.37;99761.94;1782271;79;21406;-51
2021/01/27 07:19:38;;;;;;;20.68;14.98;;;;;;;3.04;72.68;99769.53;1788230;78;21840;-53
2021/01/27 07:22:53;;;;;;;23.30;14.90;;;;;;;3.12;72.27;99768.83;1781709;79;21376;-52
2021/01/27 07:26:21;;;;;;;20.00;14.63;;;;;;;2.96;72.31;99759.95;1768054;79;21346;-51
2021/01/27 07:29:34;;;;;;;21.85;15.53;;;;;;;3.05;72.77;99767.69;1767663;80;21324;-52
2021/01/27 07:33:02;;;;;;;18.50;13.98;;;;;;;3.08;72.49;99755.23;1779978;80;21217;-51
2021/01/27 07:36:48;;;;;;;19.27;12.63;;;;;;;3.12;72.68;99763.42;1782613;79;21437;-51
2021/01/27 07:40:26;;;;;;;21.33;14.50;;;;;;;3.16;72.42;99764.83;1767143;80;21370;-53
2021/01/27 07:43:57;;;;;;;19.07;12.75;;;;;;;3.22;72.67;99764.25;1777853;79;21403;-52
2021/01/27 07:47:21;;;;;;;19.20;13.43;;;;;;;3.27;72.19;99767.38;1798182;79;21819;-52
2021/01/27 07:50:30;;;;;;;16.42;12.10;;;;;;;3.31;72.35;99771.52;1798796;79;21725;-52
2021/01/27 07:53:45;;;;;;;18.57;12.88;;;;;;;3.28;72.38;99762.34;1798987;79;21263;-52
2021/01/27 07:57:13;;;;;;;19.23;11.73;;;;;;;3.20;72.64;99768.11;1798896;79;21331;-53
2021/01/27 08:00:30;;;;;;;17.52;12.68;;;;;;;3.18;72.67;99768.73;1794935;78;21225;-54
2021/01/27 08:04:05;;;;;;;22.87;14.00;;;;;;;3.13;72.74;99766.47;1788316;79;21352;-53
2021/01/27 08:07:12;;;;;;;24.02;14.78;;;;;;;3.13;72.94;99771.87;1789730;79;21196;-51
2021/01/27 08:10:35;;;;;;;23.85;14.40;;;;;;;3.14;72.90;99773.58;1751111;81;21220;-52
2021/01/27 08:13:48;;;;;;;22.20;13.15;;;;;;;3.12;72.95;99771.53;1803539;79;21223;-52
2021/01/27 08:16:54;;;;;;;23.12;14.87;;;;;;;3.16;73.20;99778.34;1804888;79;21315;-53
2021/01/27 08:20:25;;;;;;;22.55;13.93;;;;;;;3.18;73.08;99775.50;1771240;80;21374;-52
2021/01/27 08:23:41;;;;;;;25.57;15.58;;;;;;;3.26;73.29;99777.84;1805124;79;21181;-53
2021/01/27 08:26:52;;;;;;;26.10;15.45;;;;;;;3.34;72.96;99779.82;1771260;81;21265;-52
2021/01/27 08:30:11;;;;;;;37.93;21.27;;;;;;;3.32;72.85;99789.44;1797751;79;21231;-55
2021/01/27 08:33:48;;;;;;;25.72;16.02;;;;;;;3.41;72.98;99783.66;1722066;83;21196;-52
2021/01/27 08:37:05;;;;;;;26.45;15.30;;;;;;;3.62;72.98;99772.99;1755390;82;21555;-53
2021/01/27 08:40:21;;;;;;;31.05;19.57;;;;;;;3.75;72.36;99761.35;1776545;81;21342;-54
2021/01/27 08:43:28;;;;;;;28.70;17.00;;;;;;;3.77;72.02;99759.36;1754917;81;21373;-52
2021/01/27 08:46:59;;;;;;;28.98;18.77;;;;;;;3.59;71.69;99757.05;1728266;82;21259;-53
2021/01/27 08:50:06;;;;;;;24.55;16.35;;;;;;;3.50;72.11;99762.00;1751842;82;21271;-52
2021/01/27 08:53:23;;;;;;;24.82;16.17;;;;;;;3.61;72.35;99752.36;1751844;82;21314;-53
2021/01/27 08:56:28;;;;;;;27.73;17.57;;;;;;;3.59;72.35;99739.95;1751438;82;21335;-53
2021/01/27 08:59:37;;;;;;;18.37;11.95;;;;;;;3.73;72.58;99728.65;1752145;82;21426;-53
2021/01/27 09:03:08;;;;;;;18.57;11.00;;;;;;;3.87;72.21;99730.38;1751609;82;21223;-54
2021/01/27 09:06:31;;;;;;;16.30;11.25;;;;;;;3.85;71.82;99733.75;1751389;82;21398;-53
2021/01/27 09:09:41;;;;;;;16.55;11.18;;;;;;;3.82;71.87;99721.84;1751085;81;21636;-54
2021/01/27 09:12:48;;;;;;;17.35;11.03;;;;;;;3.88;71.80;99718.56;1752115;80;21536;-55
2021/01/27 09:15:59;;;;;;;16.23;11.78;;;;;;;3.77;71.72;99721.47;1757915;81;22176;-53
2021/01/27 09:19:25;;;;;;;14.98;9.90;;;;;;;3.67;71.82;99717.94;1757830;81;21381;-51
2021/01/27 09:22:32;;;;;;;17.87;11.97;;;;;;;3.62;72.19;99720.23;1750197;81;21192;-52
2021/01/27 09:25:40;;;;;;;17.57;12.50;;;;;;;3.68;72.37;99711.51;1766860;79;21278;-53
2021/01/27 09:28:45;;;;;;;18.48;12.43;;;;;;;3.75;72.26;99713.13;1781667;80;21230;-53
2021/01/27 09:31:51;;;;;;;18.42;12.65;;;;;;;3.66;72.28;99697.79;1789166;79;21204;-52
2021/01/27 09:34:56;;;;;;;36.70;22.75;;;;;;;3.72;72.53;99693.98;1774970;80;21332;-52
2021/01/27 09:38:10;;;;;;;22.93;13.38;;;;;;;3.69;72.43;99691.58;1787564;80;21226;-52
2021/01/27 09:41:19;;;;;;;25.40;15.40;;;;;;;3.61;72.58;99688.77;1757844;80;21223;-51
2021/01/27 09:44:35;;;;;;;30.85;17.37;;;;;;;3.62;72.95;99682.34;1747110;80;21233;-52
2021/01/27 09:47:39;;;;;;;25.20;14.78;;;;;;;3.65;72.83;99675.28;1776384;81;21775;-54
2021/01/27 09:50:47;;;;;;;22.32;13.80;;;;;;;3.56;72.74;99668.06;1749292;80;21227;-52
2021/01/27 09:53:54;;;;;;;19.82;12.07;;;;;;;3.51;73.15;99666.30;1730458;82;21382;-53
2021/01/27 09:57:06;;;;;;;19.25;13.05;;;;;;;3.47;73.28;99654.09;1749691;81;21240;-52
2021/01/27 10:00:14;;;;;;;17.67;12.37;;;;;;;3.44;75.93;99646.77;1749809;81;21212;-51
2021/01/27 10:03:34;;;;;;;15.88;11.83;;;;;;;3.44;74.00;99642.18;1749361;81;21211;-50
2021/01/27 10:07:02;;;;;;;14.95;10.55;;;;;;;3.53;73.72;99636.39;1750909;80;21663;-52
2021/01/27 10:10:20;;;;;;;17.32;12.58;;;;;;;3.50;73.53;99635.34;1748378;82;21243;-51
2021/01/27 10:13:26;;;;;;;16.62;11.78;;;;;;;3.37;73.71;99642.94;1748718;81;21511;-51
2021/01/27 10:16:31;;;;;;;14.25;10.40;;;;;;;3.33;74.02;99635.61;1750522;81;21772;-52
2021/01/27 10:19:42;;;;;;;15.58;11.08;;;;;;;3.30;74.05;99637.27;1750036;81;21863;-51
2021/01/27 10:22:47;;;;;;;16.42;11.80;;;;;;;3.22;74.26;99636.32;1773794;79;21188;-51
2021/01/27 10:25:56;;;;;;;17.85;12.40;;;;;;;3.22;74.52;99631.73;1766379;79;21551;-50
2021/01/27 10:29:28;;;;;;;18.52;12.80;;;;;;;3.23;74.47;99641.58;1785044;79;21840;-51
2021/01/27 10:32:46;;;;;;;18.95;13.45;;;;;;;3.29;74.68;99639.62;1781830;80;21327;-50
2021/01/27 10:35:52;;;;;;;16.67;11.75;;;;;;;3.38;74.51;99641.95;1782443;80;21287;-50
2021/01/27 10:39:26;;;;;;;18.23;12.35;;;;;;;3.40;74.38;99648.91;1782760;80;21212;-50
2021/01/27 10:42:31;;;;;;;;;;;;;;;3.41;74.07;99638.95;1785475;80;21184;-50
2021/01/27 10:45:48;;;;;;;15.30;10.72;;;;;;;3.28;74.14;99625.77;1755438;82;20197;-50
2021/01/27 10:48:56;;;;;;;16.05;10.00;;;;;;;3.37;74.57;99632.98;1775659;81;21346;-48
2021/01/27 10:52:02;;;;;;;18.37;12.53;;;;;;;3.34;74.09;99621.11;1776632;79;21256;-50
2021/01/27 10:55:09;;;;;;;15.68;10.45;;;;;;;3.20;74.20;99622.95;1757456;80;21212;-50
2021/01/27 10:58:21;;;;;;;14.35;8.75;;;;;;;3.22;74.52;99619.58;1782562;80;21327;-50
2021/01/27 11:01:27;;;;;;;13.60;10.85;;;;;;;3.23;74.46;99615.89;1773816;79;21692;-49
2021/01/27 11:04:35;;;;;;;16.23;11.90;;;;;;;3.24;74.44;99617.58;1751626;82;22011;-50
2021/01/27 11:07:42;;;;;;;16.85;11.73;;;;;;;3.22;74.35;99606.05;1774704;79;21358;-48
2021/01/27 11:10:48;;;;;;;13.58;10.28;;;;;;;3.21;74.65;99597.59;1772833;81;21243;-49
2021/01/27 11:13:54;;;;;;;13.68;10.20;;;;;;;3.34;74.76;99590.00;1768343;80;21304;-51
2021/01/27 11:17:01;;;;;;;16.50;11.28;;;;;;;3.39;74.50;99581.44;1755914;79;21224;-51
2021/01/27 11:20:08;;;;;;;16.07;9.35;;;;;;;3.41;74.56;99576.22;1765820;80;21276;-50
2021/01/27 11:23:16;;;;;;;15.63;10.65;;;;;;;3.49;74.43;99564.66;1766103;81;21193;-50
2021/01/27 11:26:22;;;;;;;30.72;17.15;;;;;;;3.47;74.18;99554.00;1766902;81;21343;-50
2021/01/27 11:29:28;;;;;;;24.27;14.80;;;;;;;3.45;74.31;99549.72;1767389;80;21418;-50
2021/01/27 11:32:35;;;;;;;18.77;11.48;;;;;;;3.41;74.22;99543.75;1787582;79;21245;-50
2021/01/27 11:35:40;;;;;;;18.52;13.18;;;;;;;3.36;74.51;99545.22;1769922;80;21827;-50
2021/01/27 11:38:49;;;;;;;15.20;10.98;;;;;;;3.40;74.65;99549.31;1770850;79;21339;-50
2021/01/27 11:41:54;;;;;;;18.20;11.53;;;;;;;3.39;74.50;99535.45;1798351;80;21840;-51
2021/01/27 11:45:00;;;;;;;17.85;11.95;;;;;;;3.30;74.60;99549.37;1798883;78;21754;-50
2021/01/27 11:48:05;;;;;;;14.93;10.60;;;;;;;3.22;74.67;99546.56;1788719;79;21794;-51
2021/01/27 11:51:15;;;;;;;11.48;8.20;;;;;;;3.16;75.00;99535.00;1799420;78;21197;-49
2021/01/27 11:54:19;;;;;;;12.15;9.45;;;;;;;3.18;75.25;99547.88;1798347;78;21256;-51
2021/01/27 11:57:27;;;;;;;12.82;10.05;;;;;;;3.29;75.25;99552.22;1782776;80;21201;-50
2021/01/27 12:00:33;;;;;;;12.80;9.58;;;;;;;3.29;75.12;99549.52;1796985;79;21883;-51
2021/01/27 12:03:42;;;;;;;7.83;6.33;;;;;;;3.27;75.13;99558.30;1794635;80;21185;-51
2021/01/27 12:06:47;;;;;;;10.20;7.40;;;;;;;3.24;75.14;99560.80;1741257;82;21208;-51
2021/01/27 12:09:54;;;;;;;10.25;6.78;;;;;;;3.17;75.17;99565.11;1766227;80;21228;-51
2021/01/27 12:13:00;;;;;;;9.08;7.30;;;;;;;3.17;75.36;99565.60;1773366;80;21197;-50
2021/01/27 12:16:06;;;;;;;10.20;7.37;;;;;;;3.16;75.54;99564.74;1762754;81;21256;-50
2021/01/27 12:19:13;;;;;;;11.03;7.75;;;;;;;3.12;75.58;99561.14;1758191;81;21200;-50
2021/01/27 12:22:18;;;;;;;14.03;9.40;;;;;;;3.08;75.79;99561.92;1759459;81;21813;-51
2021/01/27 12:25:26;;;;;;;14.07;11.43;;;;;;;3.09;75.90;99555.02;1766518;80;21739;-50
2021/01/27 12:28:30;;;;;;;17.75;11.30;;;;;;;3.12;75.80;99553.89;1788143;78;21925;-52
2021/01/27 12:31:36;;;;;;;13.72;9.35;;;;;;;3.08;75.83;99551.11;1746109;82;21470;-51
2021/01/27 12:34:42;;;;;;;11.88;9.10;;;;;;;3.09;75.87;99544.73;1758862;81;21832;-53
2021/01/27 12:37:48;;;;;;;12.13;9.28;;;;;;;3.03;75.92;99538.54;1759774;81;21876;-51
2021/01/27 12:40:53;;;;;;;14.85;10.30;;;;;;;3.02;76.00;99530.95;1759817;81;21355;-53
2021/01/27 12:43:59;;;;;;;12.10;10.03;;;;;;;3.00;76.27;99523.48;1772935;80;21336;-52
2021/01/27 12:47:05;;;;;;;12.15;9.28;;;;;;;3.04;76.22;99522.17;1775978;80;21196;-52
2021/01/27 12:50:13;;;;;;;14.10;10.53;;;;;;;3.08;76.21;99515.97;1789608;78;21243;-52
2021/01/27 12:53:18;;;;;;;13.53;10.90;;;;;;;3.01;76.21;99508.95;1775521;80;21326;-52
2021/01/27 12:56:25;;;;;;;13.55;10.25;;;;;;;3.03;76.34;99514.21;1758698;81;21371;-50
2021/01/27 12:59:36;;;;;;;11.38;9.15;;;;;;;3.05;76.39;99498.70;1752509;80;21367;-52
2021/01/27 13:02:43;;;;;;;11.83;9.10;;;;;;;3.11;76.45;99495.91;1767266;80;21208;-51
2021/01/27 13:05:50;;;;;;;13.58;9.45;;;;;;;3.14;76.22;99507.25;1759012;81;21861;-51
2021/01/27 13:08:56;;;;;;;12.50;9.08;;;;;;;3.08;76.22;99493.85;1759201;81;21841;-52
2021/01/27 13:12:01;;;;;;;15.80;10.10;;;;;;;3.07;76.27;99492.66;1758634;81;21402;-53
2021/01/27 13:15:07;;;;;;;17.80;13.20;;;;;;;3.09;76.19;99494.72;1746011;81;21248;-51
2021/01/27 13:18:14;;;;;;;16.48;11.70;;;;;;;3.04;76.11;99497.02;1738765;79;21990;-52
2021/01/27 13:21:19;;;;;;;14.33;9.70;;;;;;;3.08;76.43;99509.21;1719601;82;21429;-52
2021/01/27 13:24:26;;;;;;;13.62;9.60;;;;;;;3.11;76.23;99495.39;1690116;85;21366;-51
2021/01/27 13:27:31;;;;;;;12.75;8.88;;;;;;;3.08;76.25;99495.70;1690384;85;21394;-53
2021/01/27 13:30:38;;;;;;;11.97;9.05;;;;;;;3.10;76.18;99496.41;1740602;80;21311;-53
2021/01/27 13:33:43;;;;;;;12.90;9.83;;;;;;;3.12;76.27;99489.49;1724734;82;21223;-53
2021/01/27 13:36:49;;;;;;;10.88;8.70;;;;;;;3.14;76.17;99477.52;1727662;81;21339;-53
2021/01/27 13:39:55;;;;;;;11.80;8.45;;;;;;;3.14;76.09;99484.80;1725219;82;21357;-51
2021/01/27 13:43:01;;;;;;;13.60;9.28;;;;;;;3.09;76.15;99471.73;1724739;83;21346;-52
2021/01/27 13:46:06;;;;;;;13.35;9.88;;;;;;;3.12;76.14;99475.48;1724685;83;21468;-52
2021/01/27 13:49:12;;;;;;;11.78;8.38;;;;;;;3.03;76.16;99486.69;1752535;82;21369;-49
2021/01/27 13:52:17;;;;;;;12.82;9.00;;;;;;;3.01;76.37;99483.80;1753559;82;21836;-53
2021/01/27 13:55:25;;;;;;;12.85;9.30;;;;;;;3.02;76.51;99485.00;1744113;80;21227;-51
2021/01/27 13:58:30;;;;;;;14.05;10.40;;;;;;;3.06;76.53;99473.36;1734766;81;21740;-53
2021/01/27 14:01:35;;;;;;;14.53;8.83;;;;;;;2.97;76.33;99469.73;1756720;80;21217;-52
2021/01/27 14:04:41;;;;;;;16.65;10.98;;;;;;;2.88;76.59;99457.12;1713648;83;21261;-51
2021/01/27 14:07:46;;;;;;;13.80;9.33;;;;;;;2.89;76.92;99460.16;1702331;83;21243;-52
2021/01/27 14:10:52;;;;;;;19.42;13.90;;;;;;;2.94;76.91;99456.52;1723147;83;21697;-53
2021/01/27 14:14:00;;;;;;;11.68;8.88;;;;;;;2.93;76.87;99442.63;1735051;82;21729;-51
2021/01/27 14:17:05;;;;;;;11.25;8.88;;;;;;;2.99;77.10;99433.09;1735325;82;21729;-52
2021/01/27 14:20:12;;;;;;;10.90;8.70;;;;;;;3.05;77.02;99423.02;1756388;78;21899;-51
2021/01/27 14:23:19;;;;;;;12.07;9.10;;;;;;;3.08;77.00;99416.80;1766444;79;21378;-53
2021/01/27 14:26:26;;;;;;;11.35;8.35;;;;;;;3.12;76.83;99410.60;1790743;80;21236;-53
2021/01/27 14:29:31;;;;;;;9.58;7.28;;;;;;;3.06;76.68;99412.53;1790930;80;21185;-51
2021/01/27 14:32:37;;;;;;;9.73;7.28;;;;;;;2.97;76.76;99404.86;1787772;79;21844;-53
2021/01/27 14:35:42;;;;;;;10.68;7.92;;;;;;;2.94;76.90;99393.49;1791247;80;21287;-52
2021/01/27 14:38:48;;;;;;;9.65;7.55;;;;;;;2.99;77.16;99389.84;1791645;80;21340;-52
2021/01/27 14:41:55;;;;;;;11.78;8.63;;;;;;;3.02;77.04;99387.69;1791738;80;21312;-52
2021/01/27 14:44:59;;;;;;;12.55;7.25;;;;;;;3.01;76.85;99383.79;1791073;80;21213;-52
2021/01/27 14:48:04;;;;;;;9.43;6.90;;;;;;;3.03;77.04;99393.92;1776843;79;21195;-52
2021/01/27 14:51:11;;;;;;;12.70;8.53;;;;;;;2.97;76.87;99383.23;1790520;80;21253;-52
2021/01/27 14:54:16;;;;;;;10.13;7.95;;;;;;;2.94;77.03;99374.57;1777017;79;21661;-52
2021/01/27 14:57:22;;;;;;;9.83;7.42;;;;;;;2.91;77.05;99377.09;1791045;80;22014;-54